Time;durP1;ratioP1;P1;durP2;ratioP2;P2;SDS_P1;SDS_P2;PMS_P1;PMS_P2;Temp;Humidity;BMP_temperature;BMP_pressure;BME280_temperature;BME280_humidity;BME280_pressure;Samples;Min_cycle;Max_cycle;Signal;HPM_P1;HPM_P2
2023/12/02 00:01:11;;;;;;;22.63;21.33;;;;;;;;;;5025040;28;20022;-54
2023/12/02 00:03:36;;;;;;;23.90;22.60;;;;;;;;;;5023787;28;20340;-58
2023/12/02 00:06:05;;;;;;;23.63;21.88;;;;;;;;;;5024590;28;20525;-52
2023/12/02 00:08:31;;;;;;;22.73;21.48;;;;;;;;;;5025766;28;20046;-56
2023/12/02 00:10:56;;;;;;;24.25;22.90;;;;;;;;;;5024067;28;20652;-53
2023/12/02 00:13:21;;;;;;;23.02;21.63;;;;;;;;;;5026703;28;20029;-55
2023/12/02 00:15:47;;;;;;;23.67;21.92;;;;;;;;;;5023920;28;20376;-54
2023/12/02 00:18:12;;;;;;;22.88;21.58;;;;;;;;;;5023432;28;20044;-53
2023/12/02 00:20:37;;;;;;;23.48;22.17;;;;;;;;;;5025106;28;20030;-54
2023/12/02 00:23:03;;;;;;;23.08;21.83;;;;;;;;;;5025091;28;20041;-57
2023/12/02 00:25:28;;;;;;;23.67;22.38;;;;;;;;;;5023863;28;20025;-57
2023/12/02 00:27:53;;;;;;;23.02;21.73;;;;;;;;;;5026437;28;20041;-58
2023/12/02 00:30:19;;;;;;;22.83;21.63;;;;;;;;;;5023419;28;20048;-58
2023/12/02 00:32:45;;;;;;;23.35;21.95;;;;;;;;;;5025392;28;20491;-63
2023/12/02 00:35:10;;;;;;;23.77;22.45;;;;;;;;;;5026085;28;20112;-64
2023/12/02 00:37:36;;;;;;;23.05;21.77;;;;;;;;;;5027064;28;20336;-64
2023/12/02 00:40:01;;;;;;;23.60;22.23;;;;;;;;;;5023805;28;20037;-63
2023/12/02 00:42:26;;;;;;;24.50;23.10;;;;;;;;;;5019580;28;20038;-63
2023/12/02 00:44:52;;;;;;;27.20;25.70;;;;;;;;;;5022185;28;20034;-57
2023/12/02 00:47:18;;;;;;;23.42;22.13;;;;;;;;;;5024192;28;20033;-56
2023/12/02 00:49:43;;;;;;;23.67;22.38;;;;;;;;;;5024597;28;20485;-57
2023/12/02 00:52:08;;;;;;;23.83;22.52;;;;;;;;;;5023319;28;20045;-55
2023/12/02 00:54:35;;;;;;;23.30;22.00;;;;;;;;;;5025994;28;20041;-54
2023/12/02 00:57:01;;;;;;;26.58;25.08;;;;;;;;;;5021835;28;20052;-56
2023/12/02 00:59:26;;;;;;;23.55;22.15;;;;;;;;;;5023938;28;20025;-56
2023/12/02 01:01:51;;;;;;;25.20;23.60;;;;;;;;;;5022122;28;20036;-55
2023/12/02 01:04:16;;;;;;;24.70;23.30;;;;;;;;;;5025221;28;20503;-57
2023/12/02 01:06:42;;;;;;;24.75;23.38;;;;;;;;;;5023004;28;20136;-54
2023/12/02 01:09:07;;;;;;;24.25;22.95;;;;;;;;;;5027295;28;20501;-57
2023/12/02 01:11:32;;;;;;;24.05;22.67;;;;;;;;;;5026593;28;20466;-54
2023/12/02 01:13:58;;;;;;;23.58;22.20;;;;;;;;;;5024014;28;20503;-59
2023/12/02 01:16:23;;;;;;;24.88;23.48;;;;;;;;;;5018806;28;20517;-57
2023/12/02 01:18:49;;;;;;;24.58;23.27;;;;;;;;;;5027434;28;20025;-59
2023/12/02 01:21:14;;;;;;;24.20;22.85;;;;;;;;;;5025146;28;20477;-59
2023/12/02 01:23:39;;;;;;;22.75;21.55;;;;;;;;;;5022987;28;20028;-63
2023/12/02 01:26:05;;;;;;;23.45;22.15;;;;;;;;;;5030202;28;20056;-59
2023/12/02 01:28:30;;;;;;;25.48;24.08;;;;;;;;;;5026847;28;20030;-59
2023/12/02 01:30:55;;;;;;;24.35;23.05;;;;;;;;;;5027147;28;20038;-62
2023/12/02 01:33:21;;;;;;;23.02;21.83;;;;;;;;;;5026102;28;20118;-63
2023/12/02 01:35:46;;;;;;;24.63;23.23;;;;;;;;;;5025190;28;20095;-59
2023/12/02 01:38:12;;;;;;;24.13;22.83;;;;;;;;;;5028343;28;20123;-63
2023/12/02 01:40:37;;;;;;;25.25;23.80;;;;;;;;;;5028641;28;20061;-64
2023/12/02 01:43:04;;;;;;;24.25;22.85;;;;;;;;;;5028382;28;20136;-59
2023/12/02 01:45:29;;;;;;;25.80;24.30;;;;;;;;;;5026138;28;20132;-60
2023/12/02 01:47:56;;;;;;;23.77;22.48;;;;;;;;;;5028269;28;20040;-59
2023/12/02 01:50:22;;;;;;;22.88;21.63;;;;;;;;;;5024944;28;20025;-59
2023/12/02 01:52:47;;;;;;;23.75;22.45;;;;;;;;;;5027216;28;21073;-59
2023/12/02 01:55:13;;;;;;;23.15;21.92;;;;;;;;;;5028141;28;20252;-59
2023/12/02 01:57:38;;;;;;;23.48;22.15;;;;;;;;;;5028582;28;20661;-60
2023/12/02 02:00:05;;;;;;;23.80;22.50;;;;;;;;;;5027344;28;20040;-63
2023/12/02 02:02:30;;;;;;;24.73;23.33;;;;;;;;;;5025424;28;20037;-57
2023/12/02 02:04:55;;;;;;;22.35;21.10;;;;;;;;;;5027418;28;20045;-58
2023/12/02 02:07:21;;;;;;;24.92;23.52;;;;;;;;;;5026814;28;20114;-58
2023/12/02 02:09:48;;;;;;;23.95;22.65;;;;;;;;;;5026098;28;20037;-63
2023/12/02 02:12:14;;;;;;;25.23;23.73;;;;;;;;;;5024772;28;20041;-58
2023/12/02 02:14:40;;;;;;;24.40;23.10;;;;;;;;;;5024993;28;20049;-59
2023/12/02 02:17:05;;;;;;;25.13;23.75;;;;;;;;;;5024550;28;20148;-62
2023/12/02 02:19:31;;;;;;;24.95;23.55;;;;;;;;;;5027155;28;20079;-58
2023/12/02 02:21:57;;;;;;;23.10;21.90;;;;;;;;;;5027329;28;20057;-59
2023/12/02 02:24:22;;;;;;;24.30;23.00;;;;;;;;;;5028111;28;20065;-58
2023/12/02 02:26:48;;;;;;;24.63;23.25;;;;;;;;;;5023879;28;20179;-55
2023/12/02 02:29:13;;;;;;;24.27;22.88;;;;;;;;;;5026069;28;20033;-64
2023/12/02 02:31:38;;;;;;;22.90;21.70;;;;;;;;;;5026145;28;20033;-57
2023/12/02 02:34:04;;;;;;;23.70;22.40;;;;;;;;;;5026335;28;20025;-64
2023/12/02 02:36:29;;;;;;;23.30;22.00;;;;;;;;;;5024909;28;20379;-64
2023/12/02 02:38:54;;;;;;;24.55;23.25;;;;;;;;;;5026514;28;20468;-57
2023/12/02 02:41:19;;;;;;;23.40;22.10;;;;;;;;;;5024959;28;20492;-57
2023/12/02 02:43:45;;;;;;;24.45;23.15;;;;;;;;;;5025836;28;20038;-57
2023/12/02 02:46:13;;;;;;;24.25;22.95;;;;;;;;;;5027144;28;20124;-57
2023/12/02 02:48:38;;;;;;;26.08;24.58;;;;;;;;;;5024578;28;20109;-57
2023/12/02 02:51:04;;;;;;;25.27;23.88;;;;;;;;;;5026125;28;20407;-56
2023/12/02 02:53:29;;;;;;;23.77;22.48;;;;;;;;;;5026435;28;20038;-61
2023/12/02 02:55:55;;;;;;;23.52;22.23;;;;;;;;;;5023651;28;20151;-56
2023/12/02 02:58:20;;;;;;;24.75;23.25;;;;;;;;;;5027054;28;20033;-63
2023/12/02 03:00:46;;;;;;;24.30;23.00;;;;;;;;;;5024597;28;20021;-64
2023/12/02 03:03:11;;;;;;;23.13;21.83;;;;;;;;;;5027266;28;20046;-64
2023/12/02 03:05:37;;;;;;;23.73;22.42;;;;;;;;;;5022945;28;20041;-63
2023/12/02 03:08:03;;;;;;;25.45;23.85;;;;;;;;;;5021487;28;20048;-55
2023/12/02 03:10:29;;;;;;;23.40;22.13;;;;;;;;;;5024535;28;20044;-58
2023/12/02 03:12:54;;;;;;;23.90;22.60;;;;;;;;;;5024136;28;20045;-59
2023/12/02 03:15:19;;;;;;;25.25;23.85;;;;;;;;;;5025383;28;20029;-59
2023/12/02 03:17:45;;;;;;;23.13;21.92;;;;;;;;;;5022208;28;20448;-63
2023/12/02 03:20:11;;;;;;;24.50;23.10;;;;;;;;;;5024659;28;20029;-63
2023/12/02 03:22:36;;;;;;;24.00;22.70;;;;;;;;;;5022315;28;20450;-57
2023/12/02 03:25:01;;;;;;;24.83;23.42;;;;;;;;;;5025263;28;20412;-58
2023/12/02 03:27:27;;;;;;;24.70;23.40;;;;;;;;;;5024121;28;20624;-57
2023/12/02 03:29:52;;;;;;;22.58;21.27;;;;;;;;;;5024068;28;20048;-57
2023/12/02 03:32:18;;;;;;;24.40;23.10;;;;;;;;;;5023644;28;20546;-57
2023/12/02 03:34:43;;;;;;;24.70;23.30;;;;;;;;;;5025811;28;20025;-63
2023/12/02 03:37:10;;;;;;;23.45;22.15;;;;;;;;;;5020709;28;20374;-63
2023/12/02 03:39:35;;;;;;;22.38;21.15;;;;;;;;;;5029435;28;20599;-63
2023/12/02 03:42:01;;;;;;;25.48;24.05;;;;;;;;;;5023027;28;20036;-58
2023/12/02 03:44:27;;;;;;;23.05;21.75;;;;;;;;;;5025157;28;20039;-58
2023/12/02 03:46:52;;;;;;;23.52;22.23;;;;;;;;;;5024454;28;20037;-63
2023/12/02 03:49:18;;;;;;;26.45;25.05;;;;;;;;;;5024101;28;20519;-64
2023/12/02 03:51:44;;;;;;;26.45;24.75;;;;;;;;;;5022809;28;20120;-58
2023/12/02 03:54:09;;;;;;;23.20;21.90;;;;;;;;;;5024117;28;20048;-58
2023/12/02 03:56:34;;;;;;;23.88;22.33;;;;;;;;;;5021298;28;20510;-64
2023/12/02 03:59:00;;;;;;;22.95;21.67;;;;;;;;;;5023663;28;20038;-64
2023/12/02 04:01:25;;;;;;;25.23;23.73;;;;;;;;;;5024441;28;20030;-58
2023/12/02 04:03:50;;;;;;;22.80;21.60;;;;;;;;;;5023520;28;20451;-58
2023/12/02 04:06:16;;;;;;;23.45;22.05;;;;;;;;;;5024131;28;20490;-57
2023/12/02 04:08:42;;;;;;;23.95;22.50;;;;;;;;;;5023857;28;20049;-58
2023/12/02 04:11:10;;;;;;;23.15;21.88;;;;;;;;;;5020739;28;20096;-58
2023/12/02 04:13:35;;;;;;;25.90;24.50;;;;;;;;;;5024013;28;20123;-63
2023/12/02 04:16:01;;;;;;;23.92;22.55;;;;;;;;;;5024196;28;20063;-58
2023/12/02 04:18:26;;;;;;;25.17;23.73;;;;;;;;;;5024158;28;20477;-64
2023/12/02 04:20:52;;;;;;;25.20;23.80;;;;;;;;;;5024732;28;20456;-59
2023/12/02 04:23:18;;;;;;;24.60;23.15;;;;;;;;;;5022312;28;20471;-58
2023/12/02 04:25:44;;;;;;;23.77;22.48;;;;;;;;;;5022929;28;20056;-58
2023/12/02 04:28:10;;;;;;;25.10;23.63;;;;;;;;;;5021676;28;20464;-57
2023/12/02 04:30:37;;;;;;;23.55;22.15;;;;;;;;;;5025027;28;20037;-61
2023/12/02 04:33:03;;;;;;;24.17;22.55;;;;;;;;;;5023803;28;20037;-59
2023/12/02 04:35:30;;;;;;;22.75;21.55;;;;;;;;;;5020314;28;20033;-61
2023/12/02 04:37:55;;;;;;;23.67;22.38;;;;;;;;;;5026611;28;20029;-60
2023/12/02 04:40:21;;;;;;;21.83;20.63;;;;;;;;;;5019795;28;20092;-63
2023/12/02 04:42:47;;;;;;;23.30;22.00;;;;;;;;;;5021517;28;20033;-63
2023/12/02 04:45:12;;;;;;;23.17;21.88;;;;;;;;;;5023736;28;20037;-63
2023/12/02 04:47:38;;;;;;;23.80;22.50;;;;;;;;;;5024348;28;20033;-63
2023/12/02 04:50:05;;;;;;;23.27;21.98;;;;;;;;;;5022060;28;20459;-62
2023/12/02 04:52:31;;;;;;;22.70;21.50;;;;;;;;;;5028621;28;20036;-62
2023/12/02 04:54:56;;;;;;;23.52;22.23;;;;;;;;;;5018639;28;20046;-63
2023/12/02 04:57:21;;;;;;;22.52;21.33;;;;;;;;;;5018954;28;20104;-63
2023/12/02 04:59:47;;;;;;;24.17;22.85;;;;;;;;;;5023193;28;20037;-56
2023/12/02 05:02:12;;;;;;;22.88;21.67;;;;;;;;;;5027542;28;20044;-60
2023/12/02 05:04:38;;;;;;;23.63;22.33;;;;;;;;;;5025607;28;20073;-58
2023/12/02 05:07:03;;;;;;;23.38;22.08;;;;;;;;;;5025381;28;20029;-59
2023/12/02 05:09:29;;;;;;;23.52;22.23;;;;;;;;;;5027700;28;20034;-63
2023/12/02 05:11:55;;;;;;;22.35;21.15;;;;;;;;;;5026340;28;20021;-58
2023/12/02 05:14:21;;;;;;;23.40;22.10;;;;;;;;;;5030361;28;20072;-58
2023/12/02 05:16:46;;;;;;;24.63;23.33;;;;;;;;;;5026279;28;20040;-59
2023/12/02 05:19:12;;;;;;;22.83;21.63;;;;;;;;;;5024771;28;20519;-64
2023/12/02 05:21:38;;;;;;;23.85;22.55;;;;;;;;;;5023743;28;20070;-63
2023/12/02 05:24:03;;;;;;;23.70;22.40;;;;;;;;;;5023919;28;20030;-62
2023/12/02 05:26:29;;;;;;;23.85;22.55;;;;;;;;;;5027700;28;20033;-64
2023/12/02 05:28:54;;;;;;;24.20;22.90;;;;;;;;;;5026355;28;20029;-64
2023/12/02 05:31:20;;;;;;;23.02;21.83;;;;;;;;;;5028292;28;20033;-64
2023/12/02 05:33:46;;;;;;;23.17;21.98;;;;;;;;;;5025698;28;20119;-64
2023/12/02 05:36:12;;;;;;;25.42;24.02;;;;;;;;;;5022470;28;20455;-59
2023/12/02 05:38:37;;;;;;;24.45;23.15;;;;;;;;;;5025661;28;20034;-59
2023/12/02 05:41:04;;;;;;;25.13;23.73;;;;;;;;;;5025890;28;20048;-56
2023/12/02 05:43:30;;;;;;;24.30;23.00;;;;;;;;;;5023654;28;20033;-58
2023/12/02 05:45:55;;;;;;;24.95;23.60;;;;;;;;;;5025678;28;20115;-59
2023/12/02 05:48:20;;;;;;;25.50;23.40;;;;;;;;;;5025506;28;20048;-60
2023/12/02 05:50:46;;;;;;;24.85;23.52;;;;;;;;;;5030149;28;20053;-63
2023/12/02 05:53:11;;;;;;;23.25;21.95;;;;;;;;;;5023458;28;20060;-60
2023/12/02 05:55:37;;;;;;;22.88;21.58;;;;;;;;;;5026824;28;20109;-63
2023/12/02 05:58:02;;;;;;;24.00;22.70;;;;;;;;;;5025081;28;20486;-63
2023/12/02 06:00:28;;;;;;;25.80;24.30;;;;;;;;;;5022889;28;20032;-63
2023/12/02 06:02:53;;;;;;;24.30;23.00;;;;;;;;;;5023339;28;20434;-63
2023/12/02 06:05:18;;;;;;;24.58;23.27;;;;;;;;;;5024544;28;20036;-60
2023/12/02 06:07:44;;;;;;;23.98;22.67;;;;;;;;;;5025065;28;20149;-60
2023/12/02 06:10:09;;;;;;;23.38;22.08;;;;;;;;;;5026889;28;20052;-60
2023/12/02 06:12:35;;;;;;;24.67;23.30;;;;;;;;;;5024513;28;20108;-60
2023/12/02 06:15:01;;;;;;;25.00;23.63;;;;;;;;;;5023563;28;20044;-60
2023/12/02 06:17:26;;;;;;;23.77;22.48;;;;;;;;;;5022693;28;22092;-61
2023/12/02 06:19:52;;;;;;;23.90;22.60;;;;;;;;;;5026128;28;20102;-61
2023/12/02 06:22:17;;;;;;;24.00;22.70;;;;;;;;;;5027333;28;20037;-61
2023/12/02 06:24:42;;;;;;;23.35;22.08;;;;;;;;;;5027057;28;20274;-61
2023/12/02 06:27:08;;;;;;;23.67;22.38;;;;;;;;;;5025266;28;20053;-63
2023/12/02 06:29:33;;;;;;;22.70;21.50;;;;;;;;;;5025120;28;20049;-60
2023/12/02 06:31:59;;;;;;;24.08;22.67;;;;;;;;;;5022360;28;20041;-64
2023/12/02 06:34:24;;;;;;;24.45;23.10;;;;;;;;;;5027618;28;20115;-63
2023/12/02 06:36:49;;;;;;;23.65;22.35;;;;;;;;;;5028303;28;20116;-60
2023/12/02 06:39:15;;;;;;;23.52;22.23;;;;;;;;;;5027838;28;20124;-60
2023/12/02 06:41:41;;;;;;;23.73;22.40;;;;;;;;;;5024537;28;20065;-60
2023/12/02 06:44:08;;;;;;;24.50;23.00;;;;;;;;;;5029431;28;20547;-60
2023/12/02 06:46:33;;;;;;;22.73;21.52;;;;;;;;;;5021699;28;20108;-60
2023/12/02 06:48:59;;;;;;;24.63;23.30;;;;;;;;;;5026955;28;20140;-60
2023/12/02 06:51:28;;;;;;;23.42;22.15;;;;;;;;;;5029667;28;20047;-60
2023/12/02 06:53:54;;;;;;;22.90;21.70;;;;;;;;;;5021524;28;20422;-61
2023/12/02 06:56:21;;;;;;;23.60;22.30;;;;;;;;;;5024269;28;20041;-60
2023/12/02 06:58:49;;;;;;;24.00;22.70;;;;;;;;;;5024124;28;20029;-59
2023/12/02 07:01:32;;;;;;;25.33;23.98;;;;;;;;;;5023571;28;20038;-59
2023/12/02 07:03:59;;;;;;;25.42;24.02;;;;;;;;;;5030887;28;20155;-58
2023/12/02 07:06:25;;;;;;;24.48;23.17;;;;;;;;;;5027216;28;20554;-60
2023/12/02 07:08:52;;;;;;;23.67;22.38;;;;;;;;;;5026318;28;20040;-62
2023/12/02 07:11:18;;;;;;;24.33;22.92;;;;;;;;;;5024731;28;20045;-59
2023/12/02 07:13:43;;;;;;;23.50;22.02;;;;;;;;;;5026614;28;20052;-61
2023/12/02 07:16:09;;;;;;;23.70;22.40;;;;;;;;;;5025297;28;20026;-62
2023/12/02 07:18:35;;;;;;;23.98;22.67;;;;;;;;;;5024167;28;20041;-62
2023/12/02 07:21:00;;;;;;;23.40;22.10;;;;;;;;;;5029477;28;20044;-62
2023/12/02 07:23:26;;;;;;;23.38;22.08;;;;;;;;;;5026652;28;20037;-62
2023/12/02 07:25:52;;;;;;;25.55;24.15;;;;;;;;;;5031307;28;20392;-64
2023/12/02 07:28:17;;;;;;;23.40;22.10;;;;;;;;;;5025012;28;20049;-64
2023/12/02 07:30:43;;;;;;;23.90;22.60;;;;;;;;;;5025813;28;20383;-63
2023/12/02 07:33:08;;;;;;;23.52;22.23;;;;;;;;;;5022095;28;20493;-62
2023/12/02 07:35:34;;;;;;;24.63;23.23;;;;;;;;;;5022540;28;20077;-63
2023/12/02 07:37:59;;;;;;;23.50;22.20;;;;;;;;;;5027109;28;20068;-59
2023/12/02 07:40:25;;;;;;;24.38;22.95;;;;;;;;;;5023590;28;20436;-63
2023/12/02 07:42:51;;;;;;;23.30;22.00;;;;;;;;;;5026726;28;20037;-63
2023/12/02 07:45:16;;;;;;;22.50;21.25;;;;;;;;;;5023514;28;20053;-63
2023/12/02 07:47:41;;;;;;;22.92;21.70;;;;;;;;;;5025188;28;20367;-63
2023/12/02 07:50:07;;;;;;;22.02;20.83;;;;;;;;;;5026658;28;20119;-63
2023/12/02 07:52:33;;;;;;;22.83;21.52;;;;;;;;;;5021882;28;20493;-59
2023/12/02 07:54:58;;;;;;;21.95;20.75;;;;;;;;;;5025242;28;20065;-62
2023/12/02 07:57:23;;;;;;;22.73;21.42;;;;;;;;;;5024031;28;20067;-63
2023/12/02 07:59:49;;;;;;;22.08;20.80;;;;;;;;;;5026529;28;20022;-59
2023/12/02 08:02:14;;;;;;;22.17;20.98;;;;;;;;;;5023780;28;20459;-62
2023/12/02 08:04:39;;;;;;;23.00;21.80;;;;;;;;;;5010417;28;20679;-60
2023/12/02 08:07:05;;;;;;;23.70;22.30;;;;;;;;;;5023164;28;20467;-59
2023/12/02 08:09:30;;;;;;;23.05;21.75;;;;;;;;;;5018614;28;20025;-63
2023/12/02 08:11:56;;;;;;;22.05;20.75;;;;;;;;;;5038021;28;20033;-63
2023/12/02 08:14:21;;;;;;;23.02;21.75;;;;;;;;;;5021735;28;20044;-62
2023/12/02 08:16:47;;;;;;;22.20;21.00;;;;;;;;;;5027088;28;20033;-61
2023/12/02 08:19:12;;;;;;;21.67;20.48;;;;;;;;;;5024337;28;20634;-63
2023/12/02 08:21:37;;;;;;;22.10;20.90;;;;;;;;;;5023794;28;22408;-62
2023/12/02 08:24:03;;;;;;;21.95;20.75;;;;;;;;;;5024054;28;20118;-62
2023/12/02 08:26:29;;;;;;;22.13;20.83;;;;;;;;;;5026393;28;20395;-64
2023/12/02 08:28:54;;;;;;;22.05;20.85;;;;;;;;;;5023522;28;20090;-57
2023/12/02 08:31:19;;;;;;;23.05;21.77;;;;;;;;;;5028115;28;20110;-62
2023/12/02 08:33:48;;;;;;;23.30;21.90;;;;;;;;;;5024361;28;20097;-61
2023/12/02 08:36:14;;;;;;;23.00;21.70;;;;;;;;;;5031541;28;20143;-61
2023/12/02 08:38:39;;;;;;;23.20;21.90;;;;;;;;;;5028641;28;20161;-62
2023/12/02 08:41:05;;;;;;;23.15;21.80;;;;;;;;;;5026424;28;20124;-61
2023/12/02 08:43:31;;;;;;;23.00;21.80;;;;;;;;;;5029856;28;20061;-61
2023/12/02 08:45:56;;;;;;;23.17;21.90;;;;;;;;;;5028329;28;20176;-61
2023/12/02 08:48:21;;;;;;;23.13;21.90;;;;;;;;;;5032017;28;20041;-62
2023/12/02 08:50:47;;;;;;;23.30;21.90;;;;;;;;;;5029258;28;20041;-70
2023/12/02 08:53:12;;;;;;;24.27;22.58;;;;;;;;;;5029298;28;20720;-62
2023/12/02 08:55:37;;;;;;;23.73;22.42;;;;;;;;;;5019855;28;20037;-62
2023/12/02 08:58:03;;;;;;;24.63;23.15;;;;;;;;;;5027285;28;20097;-62
2023/12/02 09:00:30;;;;;;;23.50;22.20;;;;;;;;;;5026351;28;20036;-61
2023/12/02 09:02:56;;;;;;;23.75;22.15;;;;;;;;;;5025948;28;20354;-61
2023/12/02 09:05:21;;;;;;;24.33;23.02;;;;;;;;;;5013164;28;20055;-70
2023/12/02 09:07:47;;;;;;;22.40;21.20;;;;;;;;;;5032412;28;20041;-60
2023/12/02 09:10:12;;;;;;;24.85;22.98;;;;;;;;;;5024130;28;20029;-62
2023/12/02 09:12:38;;;;;;;25.10;23.70;;;;;;;;;;5029830;28;20025;-69
2023/12/02 09:15:38;;;;;;;22.67;21.48;;;;;;;;;;5026211;28;20034;-62
2023/12/02 09:18:10;;;;;;;24.42;23.13;;;;;;;;;;5011625;28;20044;-61
2023/12/02 09:20:49;;;;;;;23.25;22.02;;;;;;;;;;5022827;28;20108;-61
2023/12/02 09:23:18;;;;;;;23.90;22.58;;;;;;;;;;5032295;28;20553;-61
2023/12/02 09:25:45;;;;;;;23.20;21.90;;;;;;;;;;5027092;28;20110;-70
2023/12/02 09:28:16;;;;;;;22.60;21.35;;;;;;;;;;5029233;28;20034;-72
2023/12/02 09:30:57;;;;;;;24.52;23.20;;;;;;;;;;5026028;28;22009;-70
2023/12/02 09:33:23;;;;;;;23.33;22.02;;;;;;;;;;5027658;28;20032;-62
2023/12/02 09:35:57;;;;;;;23.10;21.85;;;;;;;;;;5028185;28;20110;-70
2023/12/02 09:38:23;;;;;;;23.08;21.88;;;;;;;;;;5028124;28;20036;-71
2023/12/02 09:41:09;;;;;;;23.40;22.00;;;;;;;;;;5025510;28;20850;-62
2023/12/02 09:44:09;;;;;;;25.10;23.70;;;;;;;;;;5023586;28;20042;-71
2023/12/02 09:47:02;;;;;;;23.20;21.97;;;;;;;;;;5027095;28;20022;-71
2023/12/02 09:49:46;;;;;;;25.45;24.05;;;;;;;;;;5025975;28;20493;-73
2023/12/02 09:52:30;;;;;;;25.13;23.83;;;;;;;;;;5023413;28;20133;-71
2023/12/02 09:55:17;;;;;;;24.35;22.98;;;;;;;;;;5024772;28;20499;-63
2023/12/02 09:57:51;;;;;;;23.25;22.00;;;;;;;;;;5026104;28;20128;-61
2023/12/02 10:00:43;;;;;;;25.58;24.17;;;;;;;;;;5026632;28;20048;-60
2023/12/02 10:03:21;;;;;;;24.30;22.98;;;;;;;;;;5027735;28;20386;-60
2023/12/02 10:06:08;;;;;;;23.25;21.95;;;;;;;;;;5028273;28;20040;-71
2023/12/02 10:09:12;;;;;;;23.00;21.77;;;;;;;;;;5026320;28;20067;-71
2023/12/02 10:11:46;;;;;;;24.23;22.90;;;;;;;;;;5024852;28;20472;-69
2023/12/02 10:14:11;;;;;;;21.95;20.75;;;;;;;;;;5026163;28;20033;-69
2023/12/02 10:16:40;;;;;;;21.60;20.40;;;;;;;;;;5025386;28;20030;-70
2023/12/02 10:19:11;;;;;;;21.38;20.17;;;;;;;;;;5024577;28;20037;-70
2023/12/02 10:21:37;;;;;;;22.45;21.02;;;;;;;;;;5025647;28;20037;-71
2023/12/02 10:24:08;;;;;;;22.08;20.88;;;;;;;;;;5023354;28;20033;-70
2023/12/02 10:26:36;;;;;;;;;;;;;;;;;;5025421;28;20033;-70
2023/12/02 10:29:19;;;;;;;22.67;21.30;;;;;;;;;;5030823;28;19979;-61
2023/12/02 10:31:56;;;;;;;22.05;20.75;;;;;;;;;;5025376;28;20025;-62
2023/12/02 10:34:37;;;;;;;22.92;21.63;;;;;;;;;;5026020;28;20049;-62
2023/12/02 10:37:04;;;;;;;21.92;20.73;;;;;;;;;;5023212;28;20033;-62
2023/12/02 10:39:43;;;;;;;21.67;20.48;;;;;;;;;;5021968;28;20525;-62
2023/12/02 10:42:25;;;;;;;23.40;22.10;;;;;;;;;;5024352;28;20060;-70
2023/12/02 10:45:07;;;;;;;22.90;21.58;;;;;;;;;;5023488;28;20030;-71
2023/12/02 10:47:33;;;;;;;21.00;19.88;;;;;;;;;;5023788;28;20687;-70
2023/12/02 10:50:02;;;;;;;23.63;22.25;;;;;;;;;;5024567;28;20068;-71
2023/12/02 10:52:30;;;;;;;23.48;22.08;;;;;;;;;;5022621;28;20039;-71
2023/12/02 10:55:01;;;;;;;20.40;19.30;;;;;;;;;;5023300;28;20040;-71
2023/12/02 10:57:27;;;;;;;22.25;20.67;;;;;;;;;;5021765;28;20088;-70
2023/12/02 11:00:06;;;;;;;21.48;20.27;;;;;;;;;;5023927;28;20029;-71
2023/12/02 11:02:46;;;;;;;21.42;20.23;;;;;;;;;;5023666;28;20072;-70
2023/12/02 11:05:20;;;;;;;21.23;20.10;;;;;;;;;;5022980;28;20095;-62
2023/12/02 11:08:00;;;;;;;21.95;20.55;;;;;;;;;;5021415;28;20076;-62
2023/12/02 11:10:35;;;;;;;21.02;19.85;;;;;;;;;;5024565;28;20029;-62
2023/12/02 11:13:12;;;;;;;21.50;20.30;;;;;;;;;;5024568;28;20451;-71
2023/12/02 11:15:50;;;;;;;22.30;20.88;;;;;;;;;;5025040;28;20110;-62
2023/12/02 11:18:28;;;;;;;21.25;20.02;;;;;;;;;;5019290;28;20391;-61
2023/12/02 11:21:03;;;;;;;20.42;19.33;;;;;;;;;;5019335;28;20090;-61
2023/12/02 11:24:11;;;;;;;22.73;21.08;;;;;;;;;;5021324;28;20116;-72
2023/12/02 11:26:48;;;;;;;20.50;19.40;;;;;;;;;;5020409;28;20041;-72
2023/12/02 11:29:31;;;;;;;20.98;19.50;;;;;;;;;;5023549;28;20028;-71
2023/12/02 11:32:25;;;;;;;21.10;19.90;;;;;;;;;;5024966;28;20690;-71
2023/12/02 11:35:05;;;;;;;20.02;18.92;;;;;;;;;;5020562;28;20030;-60
2023/12/02 11:37:49;;;;;;;21.35;20.20;;;;;;;;;;5022040;28;20754;-71
2023/12/02 11:40:21;;;;;;;20.02;18.92;;;;;;;;;;5017982;28;20034;-72
2023/12/02 11:43:13;;;;;;;20.33;19.23;;;;;;;;;;5022859;28;20025;-71
2023/12/02 11:45:40;;;;;;;20.50;19.40;;;;;;;;;;5021897;28;20037;-71
2023/12/02 11:48:15;;;;;;;21.92;20.52;;;;;;;;;;5023412;28;20040;-61
2023/12/02 11:50:44;;;;;;;20.45;19.35;;;;;;;;;;5019542;28;20037;-71
2023/12/02 11:53:38;;;;;;;19.88;18.77;;;;;;;;;;5027817;28;20117;-71
2023/12/02 11:56:17;;;;;;;21.52;20.20;;;;;;;;;;5021211;28;20139;-61
2023/12/02 11:58:52;;;;;;;21.95;20.75;;;;;;;;;;5020380;28;20056;-61
2023/12/02 12:01:52;;;;;;;20.42;19.23;;;;;;;;;;5024523;28;20383;-71
2023/12/02 12:04:48;;;;;;;21.00;19.90;;;;;;;;;;5020271;28;20456;-72
2023/12/02 12:07:38;;;;;;;20.10;19.00;;;;;;;;;;5025112;28;20028;-71
2023/12/02 12:10:27;;;;;;;21.60;20.38;;;;;;;;;;5021946;28;20029;-71
2023/12/02 12:12:55;;;;;;;20.42;19.33;;;;;;;;;;5025368;28;20038;-71
2023/12/02 12:15:20;;;;;;;21.20;20.00;;;;;;;;;;5018362;28;20034;-71
2023/12/02 12:17:45;;;;;;;21.98;20.67;;;;;;;;;;5028687;28;20033;-72
2023/12/02 12:20:18;;;;;;;21.73;20.52;;;;;;;;;;5024939;28;20194;-72
2023/12/02 12:22:43;;;;;;;20.35;19.25;;;;;;;;;;5018982;28;20041;-62
2023/12/02 12:25:09;;;;;;;20.77;19.60;;;;;;;;;;5023180;28;20457;-66
2023/12/02 12:27:34;;;;;;;20.27;19.17;;;;;;;;;;5023113;28;20034;-61
2023/12/02 12:29:59;;;;;;;20.33;19.23;;;;;;;;;;5022563;28;20037;-72
2023/12/02 12:32:25;;;;;;;21.20;20.02;;;;;;;;;;5024130;28;20036;-72
2023/12/02 12:34:54;;;;;;;22.02;20.83;;;;;;;;;;5022933;28;20123;-62
2023/12/02 12:37:20;;;;;;;20.80;19.70;;;;;;;;;;5021505;28;20037;-72
2023/12/02 12:39:46;;;;;;;21.55;20.35;;;;;;;;;;5021061;28;20491;-72
2023/12/02 12:42:12;;;;;;;22.02;20.83;;;;;;;;;;5021719;28;20560;-72
2023/12/02 12:44:41;;;;;;;22.92;21.65;;;;;;;;;;5020782;28;20088;-72
2023/12/02 12:47:08;;;;;;;22.98;21.67;;;;;;;;;;5022064;28;20033;-71
2023/12/02 12:49:39;;;;;;;21.98;20.65;;;;;;;;;;5018972;28;20038;-71
2023/12/02 12:52:06;;;;;;;;;;;;;;;;;;5021715;28;20068;-72
2023/12/02 12:54:35;;;;;;;21.88;20.67;;;;;;;;;;5020927;28;20016;-71
2023/12/02 12:57:10;;;;;;;20.13;19.02;;;;;;;;;;5021675;28;20041;-71
2023/12/02 12:59:36;;;;;;;20.50;19.40;;;;;;;;;;5022439;28;20041;-72
2023/12/02 13:02:20;;;;;;;20.90;19.77;;;;;;;;;;5022304;28;20037;-72
2023/12/02 13:05:04;;;;;;;21.70;20.50;;;;;;;;;;5020886;28;20142;-72
2023/12/02 13:07:47;;;;;;;20.08;18.98;;;;;;;;;;5020370;28;20033;-71
2023/12/02 13:10:14;;;;;;;20.55;19.35;;;;;;;;;;5016420;28;20132;-72
2023/12/02 13:12:42;;;;;;;21.25;20.05;;;;;;;;;;5019299;28;20050;-72
2023/12/02 13:15:13;;;;;;;21.20;20.00;;;;;;;;;;5020867;28;20041;-62
2023/12/02 13:17:41;;;;;;;21.27;20.15;;;;;;;;;;5023226;28;20030;-62
2023/12/02 13:20:08;;;;;;;21.48;20.25;;;;;;;;;;5021508;28;20038;-61
2023/12/02 13:22:35;;;;;;;21.75;20.55;;;;;;;;;;5022165;28;20034;-61
2023/12/02 13:25:12;;;;;;;21.27;20.08;;;;;;;;;;5024172;28;20060;-72
2023/12/02 13:27:57;;;;;;;21.55;20.35;;;;;;;;;;5021978;28;20033;-61
2023/12/02 13:30:23;;;;;;;21.48;20.15;;;;;;;;;;5024376;28;20041;-61
2023/12/02 13:32:50;;;;;;;21.42;20.05;;;;;;;;;;5027430;28;20033;-61
2023/12/02 13:35:18;;;;;;;21.83;20.30;;;;;;;;;;5024264;28;20033;-62
2023/12/02 13:38:06;;;;;;;22.17;20.42;;;;;;;;;;5024844;28;20037;-72
2023/12/02 13:40:46;;;;;;;19.92;18.83;;;;;;;;;;5027384;28;20110;-67
2023/12/02 13:43:13;;;;;;;21.30;20.10;;;;;;;;;;5029056;28;20040;-62
2023/12/02 13:45:40;;;;;;;19.92;18.83;;;;;;;;;;5020935;28;20612;-62
2023/12/02 13:48:21;;;;;;;20.60;19.50;;;;;;;;;;5024590;28;20225;-69
2023/12/02 13:50:58;;;;;;;20.08;18.98;;;;;;;;;;5024486;28;20034;-62
2023/12/02 13:54:07;;;;;;;20.10;19.00;;;;;;;;;;5023864;28;20116;-62
2023/12/02 13:56:50;;;;;;;20.35;19.25;;;;;;;;;;4968396;28;20035;-69
2023/12/02 13:59:48;;;;;;;19.73;18.63;;;;;;;;;;4984742;28;20411;-62
2023/12/02 14:03:04;;;;;;;21.35;20.15;;;;;;;;;;5003661;28;20472;-61
2023/12/02 14:05:37;;;;;;;21.08;19.90;;;;;;;;;;5005341;28;20064;-69
2023/12/02 14:08:04;;;;;;;21.77;20.58;;;;;;;;;;5020430;28;20030;-69
2023/12/02 14:10:31;;;;;;;21.83;20.63;;;;;;;;;;5021640;28;20106;-68
2023/12/02 14:13:17;;;;;;;22.08;20.77;;;;;;;;;;5023622;28;20044;-69
2023/12/02 14:16:05;;;;;;;23.02;21.45;;;;;;;;;;5021338;28;20553;-69
2023/12/02 14:19:08;;;;;;;21.45;20.25;;;;;;;;;;5026782;28;20033;-62
2023/12/02 14:21:49;;;;;;;20.55;19.40;;;;;;;;;;5024768;28;20033;-62
2023/12/02 14:24:39;;;;;;;21.92;20.67;;;;;;;;;;5023034;28;20470;-69
2023/12/02 14:27:41;;;;;;;21.35;20.15;;;;;;;;;;5025608;28;20122;-69
2023/12/02 14:30:12;;;;;;;20.73;19.52;;;;;;;;;;5020981;28;20048;-69
2023/12/02 14:33:06;;;;;;;20.23;19.02;;;;;;;;;;5022673;28;20090;-69